Time;durP1;ratioP1;P1;durP2;ratioP2;P2;SDS_P1;SDS_P2;PMS_P1;PMS_P2;Temp;Humidity;BMP_temperature;BMP_pressure;BME280_temperature;BME280_humidity;BME280_pressure;Samples;Min_cycle;Max_cycle;Signal;HPM_P1;HPM_P2
2022/08/14 00:06:39;;;;;;;5.32;2.50;;;;;;;19.14;57.02;99884.84;20817082;28;20045;-72
2022/08/14 00:16:42;;;;;;;5.22;2.67;;;;;;;19.19;55.42;99884.56;20816816;28;20119;-71
2022/08/14 00:26:45;;;;;;;6.05;2.63;;;;;;;19.27;55.12;99877.03;20816350;28;20053;-70
2022/08/14 00:36:52;;;;;;;5.82;3.00;;;;;;;19.29;54.62;99869.81;20830753;28;20591;-71
2022/08/14 00:46:54;;;;;;;8.77;2.80;;;;;;;19.09;56.61;99873.66;20831395;28;20366;-72
2022/08/14 00:56:59;;;;;;;9.57;3.00;;;;;;;18.85;58.82;99861.84;20829267;28;20103;-72
2022/08/14 01:07:00;;;;;;;7.25;3.15;;;;;;;18.68;59.93;99830.94;20827607;28;20057;-72
2022/08/14 01:17:08;;;;;;;5.32;3.10;;;;;;;18.74;60.21;99829.78;20827152;28;20486;-72
2022/08/14 01:27:11;;;;;;;5.28;2.53;;;;;;;18.54;62.12;99831.78;20826281;28;20560;-71
2022/08/14 01:37:13;;;;;;;4.45;2.88;;;;;;;18.11;64.87;99836.84;20825848;28;20470;-73
2022/08/14 01:47:19;;;;;;;5.18;2.95;;;;;;;17.82;67.84;99834.94;20917907;23;20083;-67
2022/08/14 01:57:22;;;;;;;5.65;3.45;;;;;;;17.43;70.37;99807.00;20823443;28;20414;-67
2022/08/14 02:07:24;;;;;;;5.05;3.50;;;;;;;17.22;72.25;99818.72;20882670;28;20053;-65
2022/08/14 02:17:45;;;;;;;8.82;3.42;;;;;;;17.14;73.19;99797.94;20904618;28;20119;-65
2022/08/14 02:27:49;;;;;;;6.90;3.67;;;;;;;16.82;76.48;99789.91;20903981;28;20052;-67
2022/08/14 02:38:10;;;;;;;7.45;4.10;;;;;;;16.72;77.62;99782.50;20835171;28;20049;-65
2022/08/14 02:48:35;;;;;;;8.02;4.00;;;;;;;16.51;79.76;99780.00;20819723;28;20049;-69
2022/08/14 02:58:56;;;;;;;;;;;;;;;16.43;80.19;99771.56;20818827;28;20099;-65
2022/08/14 03:09:00;;;;;;;8.88;4.63;;;;;;;16.10;84.80;99780.25;20817573;28;19924;-66
2022/08/14 03:19:01;;;;;;;6.05;4.35;;;;;;;16.07;86.09;99764.53;20817534;28;20052;-67
2022/08/14 03:29:04;;;;;;;8.80;5.00;;;;;;;15.85;92.18;99762.06;20817098;28;20498;-67
2022/08/14 03:39:14;;;;;;;9.27;5.75;;;;;;;16.10;92.88;99756.47;20817430;28;20046;-66
2022/08/14 03:49:24;;;;;;;7.30;5.43;;;;;;;16.06;94.36;99751.44;20816197;28;20495;-66
2022/08/14 03:59:30;;;;;;;8.57;5.85;;;;;;;16.07;96.23;99747.84;20816443;28;20060;-67
2022/08/14 04:09:32;;;;;;;10.52;6.30;;;;;;;16.27;98.44;99738.94;20828074;28;20046;-66
2022/08/14 04:19:34;;;;;;;10.00;6.82;;;;;;;16.48;99.57;99750.22;20830965;28;20100;-65
2022/08/14 04:29:37;;;;;;;11.77;7.65;;;;;;;16.51;100.00;99743.00;20830095;28;20053;-65
2022/08/14 04:49:59;;;;;;;10.38;7.88;;;;;;;16.94;100.00;99756.69;20828395;28;20141;-65
2022/08/14 05:00:05;;;;;;;13.63;7.50;;;;;;;17.15;100.00;99757.34;20827590;28;20050;-67
2022/08/14 05:10:06;;;;;;;10.45;7.30;;;;;;;17.50;98.77;99744.03;20827615;28;20456;-66
2022/08/14 05:20:16;;;;;;;10.80;8.07;;;;;;;17.57;100.00;99751.53;20825098;28;20049;-65
2022/08/14 05:30:37;;;;;;;11.82;7.75;;;;;;;17.68;100.00;99753.59;20825235;28;20049;-66
2022/08/14 05:40:39;;;;;;;10.68;7.38;;;;;;;17.99;100.00;99747.47;20823934;28;20447;-66
2022/08/14 05:50:40;;;;;;;10.77;7.30;;;;;;;18.44;100.00;99743.09;20823472;28;20521;-65
2022/08/14 06:00:42;;;;;;;11.82;7.95;;;;;;;18.87;100.00;99735.25;20822922;28;20502;-66
2022/08/14 06:10:43;;;;;;;10.77;7.95;;;;;;;19.36;100.00;99711.03;20822295;28;20457;-66
2022/08/14 06:20:45;;;;;;;10.02;7.95;;;;;;;19.56;100.00;99697.34;20821545;28;20521;-66
2022/08/14 06:30:46;;;;;;;13.27;8.75;;;;;;;19.93;95.22;99684.34;20819303;28;20091;-66
2022/08/14 06:40:48;;;;;;;9.68;8.02;;;;;;;20.34;92.47;99686.91;20819821;28;20045;-65
2022/08/14 06:50:51;;;;;;;12.07;8.05;;;;;;;20.66;86.71;99678.56;20818951;28;20171;-65
2022/08/14 07:11:12;;;;;;;10.88;7.65;;;;;;;21.23;80.18;99660.31;20817072;28;20076;-65
2022/08/14 07:21:14;;;;;;;8.98;7.60;;;;;;;21.43;75.50;99669.56;20817763;28;20049;-66
2022/08/14 07:31:16;;;;;;;10.25;7.47;;;;;;;21.70;72.94;99672.06;20802589;28;20051;-67
2022/08/14 07:41:18;;;;;;;12.93;7.07;;;;;;;22.12;67.92;99643.16;20810890;28;20080;-66
2022/08/14 07:51:19;;;;;;;8.70;6.60;;;;;;;22.38;66.96;99643.03;20803670;23;20534;-77
2022/08/14 08:01:22;;;;;;;12.25;6.68;;;;;;;22.77;62.47;99647.94;20738447;28;20411;-77
2022/08/14 08:11:23;;;;;;;8.25;5.70;;;;;;;23.23;58.54;99648.78;20796540;28;20049;-77
2022/08/14 08:21:28;;;;;;;7.43;5.57;;;;;;;23.51;56.02;99631.38;20811285;28;20042;-78
2022/08/14 08:31:35;;;;;;;9.20;5.90;;;;;;;23.83;54.21;99634.13;20859161;28;20076;-79
2022/08/14 08:41:37;;;;;;;7.82;5.50;;;;;;;24.06;53.26;99633.03;20836561;28;20088;-78
2022/08/14 08:51:38;;;;;;;8.60;5.25;;;;;;;24.55;50.62;99617.34;20832858;28;20053;-76
2022/08/14 09:01:43;;;;;;;7.72;5.50;;;;;;;24.93;50.84;99615.84;20829106;28;20043;-77
2022/08/14 09:11:45;;;;;;;7.05;5.00;;;;;;;25.29;50.39;99604.53;20830709;28;20049;-76
2022/08/14 09:21:48;;;;;;;6.73;4.97;;;;;;;25.57;47.65;99602.06;20830530;28;20530;-76
2022/08/14 09:31:55;;;;;;;7.03;4.15;;;;;;;26.22;41.74;99607.75;20812905;28;20045;-77
2022/08/14 09:41:58;;;;;;;6.07;3.53;;;;;;;26.69;41.12;99581.81;20827557;28;20045;-76
2022/08/14 09:52:20;;;;;;;7.53;4.03;;;;;;;27.16;39.75;99546.78;20811972;28;20096;-76
2022/08/14 10:02:34;;;;;;;6.60;3.60;;;;;;;27.58;36.61;99535.44;20807735;28;20136;-77
2022/08/14 10:12:35;;;;;;;5.30;3.35;;;;;;;27.75;35.83;99513.13;20805903;28;20548;-76
2022/08/14 10:22:37;;;;;;;5.95;3.03;;;;;;;28.04;34.54;99501.22;20823862;28;20046;-76
2022/08/14 10:32:58;;;;;;;4.15;2.50;;;;;;;28.47;31.93;99472.56;20811406;28;20490;-77
2022/08/14 10:43:01;;;;;;;3.97;2.63;;;;;;;29.01;29.26;99454.22;20810216;28;20049;-78
2022/08/14 10:53:04;;;;;;;6.40;2.42;;;;;;;29.39;29.81;99440.13;20810788;28;20126;-76
2022/08/14 11:03:08;;;;;;;4.20;2.45;;;;;;;29.51;28.69;99415.50;20802290;28;20046;-76
2022/08/14 11:13:11;;;;;;;4.78;2.20;;;;;;;29.92;27.53;99420.88;20819276;28;20042;-76
2022/08/14 11:23:15;;;;;;;3.53;2.40;;;;;;;29.84;27.24;99425.25;20817836;28;20478;-76
2022/08/14 11:33:17;;;;;;;3.70;2.80;;;;;;;29.97;26.60;99426.59;20801251;28;20041;-76
2022/08/14 11:43:18;;;;;;;3.88;2.20;;;;;;;30.04;27.29;99403.28;20817570;28;20111;-76
2022/08/14 11:53:29;;;;;;;4.00;2.20;;;;;;;30.05;26.79;99386.94;20818358;28;20058;-76
2022/08/14 12:03:31;;;;;;;4.60;2.20;;;;;;;30.25;25.12;99373.88;20800010;28;20049;-76
2022/08/14 12:13:52;;;;;;;4.80;2.80;;;;;;;30.27;24.76;99366.44;20803727;28;20170;-76
2022/08/14 12:23:56;;;;;;;4.47;2.40;;;;;;;30.73;25.37;99346.81;20820463;28;20041;-76
2022/08/14 12:34:02;;;;;;;3.10;2.03;;;;;;;30.34;24.96;99329.63;20830846;28;20055;-75
2022/08/14 12:44:14;;;;;;;5.78;2.40;;;;;;;30.76;25.34;99314.84;20831117;28;20050;-77
2022/08/14 12:54:20;;;;;;;3.50;2.33;;;;;;;30.60;24.96;99293.31;20832707;28;20421;-77
2022/08/14 13:04:30;;;;;;;3.70;2.20;;;;;;;30.90;23.31;99276.22;20813585;28;20052;-76
2022/08/14 13:14:35;;;;;;;3.80;1.70;;;;;;;31.11;23.09;99267.41;20829740;28;20045;-77
2022/08/14 13:24:37;;;;;;;6.40;2.13;;;;;;;31.18;23.03;99256.69;20829604;28;20160;-76
2022/08/14 13:34:39;;;;;;;3.10;1.90;;;;;;;31.16;22.85;99243.34;20825956;28;20439;-76
2022/08/14 13:44:41;;;;;;;3.30;1.90;;;;;;;31.22;23.12;99236.34;20809435;28;20132;-76
2022/08/14 13:54:45;;;;;;;5.10;1.90;;;;;;;31.05;22.10;99226.75;20808629;28;20045;-76
2022/08/14 14:04:55;;;;;;;3.83;2.05;;;;;;;31.20;22.00;99224.91;20805039;28;20451;-76
2022/08/14 14:14:56;;;;;;;3.90;2.03;;;;;;;31.30;21.35;99213.84;20803670;28;20065;-76
2022/08/14 14:25:04;;;;;;;3.35;1.95;;;;;;;31.17;21.85;99206.34;20823631;28;20046;-76
2022/08/14 14:35:06;;;;;;;5.20;1.90;;;;;;;31.66;20.78;99194.94;20824141;28;20414;-76
2022/08/14 14:45:07;;;;;;;3.05;1.83;;;;;;;31.39;21.84;99183.81;20806709;28;20052;-77
2022/08/14 14:55:11;;;;;;;2.55;1.73;;;;;;;31.50;20.92;99178.94;20821951;28;20164;-76
2022/08/14 15:05:13;;;;;;;4.03;1.80;;;;;;;31.34;22.00;99180.00;20803563;28;20089;-76
2022/08/14 15:15:16;;;;;;;4.32;2.10;;;;;;;31.35;20.48;99182.50;20803964;28;20727;-76
2022/08/14 15:25:17;;;;;;;4.30;2.58;;;;;;;31.23;20.50;99183.94;20803157;28;20045;-76
2022/08/14 15:35:20;;;;;;;4.88;2.75;;;;;;;31.36;19.93;99176.06;20818640;28;20052;-76
2022/08/14 15:45:22;;;;;;;4.40;2.15;;;;;;;31.23;20.64;99183.94;20801866;28;20577;-76
2022/08/14 15:55:24;;;;;;;3.45;2.30;;;;;;;30.99;21.35;99189.63;20801464;28;20049;-76
2022/08/14 16:05:26;;;;;;;5.07;2.50;;;;;;;31.00;20.85;99177.78;20810315;28;20064;-76
2022/08/14 16:15:40;;;;;;;6.13;2.70;;;;;;;30.88;20.99;99185.53;20787230;28;20061;-76
2022/08/14 16:25:54;;;;;;;3.90;2.17;;;;;;;30.81;20.91;99177.31;20813127;28;20046;-76
2022/08/14 16:35:56;;;;;;;3.83;2.50;;;;;;;30.74;19.99;99178.22;20832571;28;20483;-76
2022/08/14 16:46:00;;;;;;;3.55;2.20;;;;;;;30.60;21.53;99166.31;20749161;28;20309;-76
2022/08/14 16:56:03;;;;;;;4.03;2.15;;;;;;;30.25;21.97;99168.66;20780358;28;20050;-76
2022/08/14 17:06:06;;;;;;;3.75;2.13;;;;;;;30.07;23.70;99159.97;20830528;28;20041;-76
2022/08/14 17:16:27;;;;;;;8.35;6.20;;;;;;;29.69;24.60;99151.78;20829698;28;20053;-76
2022/08/14 17:26:29;;;;;;;11.30;7.88;;;;;;;29.51;24.71;99148.47;20827577;28;20046;-76
2022/08/14 17:36:32;;;;;;;9.13;3.40;;;;;;;29.34;25.27;99142.31;20883077;23;20056;-71
2022/08/14 17:46:35;;;;;;;4.90;2.83;;;;;;;28.98;26.48;99163.50;20897825;28;20494;-70
2022/08/14 17:56:36;;;;;;;4.38;2.50;;;;;;;28.69;29.16;99175.63;20898243;28;20505;-70
2022/08/14 18:06:39;;;;;;;7.75;3.45;;;;;;;28.48;32.98;99178.03;20896490;28;20049;-71
2022/08/14 18:17:00;;;;;;;6.13;3.65;;;;;;;28.17;34.57;99178.66;20896963;28;20049;-70
2022/08/14 18:27:02;;;;;;;9.23;2.80;;;;;;;27.90;34.15;99197.78;20825612;28;20050;-70
2022/08/14 18:37:09;;;;;;;5.72;2.70;;;;;;;27.56;34.23;99204.03;20812817;28;20128;-70
2022/08/14 18:47:18;;;;;;;4.43;2.10;;;;;;;27.22;34.49;99206.72;20871669;28;20063;-70
2022/08/14 18:57:20;;;;;;;8.15;2.22;;;;;;;27.01;35.23;99213.28;20892420;28;20059;-69
2022/08/14 19:07:23;;;;;;;5.65;2.35;;;;;;;26.79;35.90;99214.66;20880355;28;20672;-70
2022/08/14 19:17:24;;;;;;;5.88;2.17;;;;;;;26.58;36.64;99224.88;20821935;28;20126;-70
2022/08/14 19:27:27;;;;;;;7.50;2.30;;;;;;;26.30;37.73;99232.13;20809979;28;20072;-70
2022/08/14 19:37:53;;;;;;;13.32;2.60;;;;;;;26.04;38.47;99237.41;20806221;28;20046;-70
2022/08/14 19:47:55;;;;;;;3.75;2.25;;;;;;;25.91;39.31;99248.50;20808724;28;20509;-69
2022/08/14 19:57:58;;;;;;;7.80;2.45;;;;;;;25.87;39.31;99262.34;20808064;28;20067;-70
2022/08/14 20:08:00;;;;;;;6.38;2.28;;;;;;;25.81;39.74;99266.47;20808099;28;20505;-69
2022/08/14 20:18:21;;;;;;;5.70;2.90;;;;;;;25.70;40.42;99266.66;20879874;28;20516;-69
2022/08/14 20:28:42;;;;;;;6.18;2.83;;;;;;;25.68;41.28;99258.78;20827011;28;20587;-69
2022/08/14 20:38:52;;;;;;;10.18;3.05;;;;;;;25.56;42.15;99265.31;20875900;28;20055;-69
2022/08/14 20:48:55;;;;;;;6.83;2.70;;;;;;;25.45;43.79;99254.78;20896270;28;20443;-70
2022/08/14 20:58:56;;;;;;;9.63;3.22;;;;;;;25.41;44.39;99262.25;20902615;28;20319;-71
2022/08/14 21:08:58;;;;;;;5.53;3.10;;;;;;;25.27;46.88;99268.91;20901065;28;20056;-71
2022/08/14 21:18:59;;;;;;;6.93;3.20;;;;;;;25.14;47.28;99281.78;20901488;28;20045;-70
2022/08/14 21:29:02;;;;;;;5.87;3.00;;;;;;;25.07;48.91;99289.56;20900139;28;20064;-71
2022/08/14 21:39:05;;;;;;;8.48;3.50;;;;;;;24.92;50.78;99292.81;20899511;28;20049;-71
2022/08/14 21:49:08;;;;;;;8.80;3.95;;;;;;;24.78;52.51;99310.97;20899760;28;20048;-71
2022/08/14 21:59:11;;;;;;;9.77;3.80;;;;;;;24.77;53.05;99317.34;20897447;28;20131;-71
2022/08/14 22:09:18;;;;;;;8.63;4.07;;;;;;;24.61;54.18;99317.03;20904479;28;20114;-71
2022/08/14 22:19:22;;;;;;;11.32;4.05;;;;;;;24.52;55.35;99317.88;20904114;28;20095;-71
2022/08/14 22:29:43;;;;;;;7.43;3.90;;;;;;;24.42;55.92;99320.53;20902991;28;20083;-71
2022/08/14 22:39:54;;;;;;;6.78;3.70;;;;;;;24.38;56.55;99308.41;20901480;28;20056;-71
2022/08/14 22:50:16;;;;;;;10.00;3.88;;;;;;;24.31;57.20;99305.41;20902028;28;20053;-69
2022/08/14 23:00:33;;;;;;;14.52;4.07;;;;;;;24.28;57.40;99305.69;20900858;28;20042;-70
2022/08/14 23:10:36;;;;;;;6.67;3.30;;;;;;;24.19;57.97;99311.00;20900046;28;20424;-71
2022/08/14 23:20:39;;;;;;;7.72;3.38;;;;;;;24.11;58.49;99309.03;20899546;28;20048;-71
2022/08/14 23:30:41;;;;;;;7.23;3.10;;;;;;;24.02;58.96;99334.78;20898084;28;20053;-70
2022/08/14 23:40:49;;;;;;;5.00;3.17;;;;;;;23.95;59.50;99335.44;20897290;28;20087;-70
2022/08/14 23:50:51;;;;;;;7.97;3.20;;;;;;;23.79;60.54;99322.56;20897816;28;20045;-71
